createdAt,value
2019-02-27T00:01:43.050Z,45.50
2019-02-27T00:04:40.857Z,46.92
2019-02-27T00:07:35.914Z,48.92
2019-02-27T00:10:30.875Z,49.48
2019-02-27T00:13:25.613Z,53.48
2019-02-27T00:16:21.647Z,49.42
2019-02-27T00:19:16.767Z,63.33
2019-02-27T00:22:11.670Z,67.27
2019-02-27T00:25:07.730Z,72.27
2019-02-27T00:28:03.538Z,64.05
2019-02-27T00:30:59.145Z,65.22
2019-02-27T00:33:56.908Z,76.30
2019-02-27T00:36:50.055Z,72.75
2019-02-27T00:39:45.182Z,60.15
2019-02-27T00:42:41.072Z,62.88
2019-02-27T00:45:39.883Z,66.25
2019-02-27T00:48:31.986Z,77.53
2019-02-27T00:51:27.729Z,86.95
2019-02-27T00:54:22.753Z,66.85
2019-02-27T00:57:20.459Z,59.77
2019-02-27T01:00:15.498Z,85.35
2019-02-27T01:03:11.189Z,70.30
2019-02-27T01:06:06.150Z,54.98
2019-02-27T01:09:01.090Z,218.45
2019-02-27T01:11:57.638Z,115.32
2019-02-27T01:14:52.825Z,84.28
2019-02-27T01:17:48.359Z,64.20
2019-02-27T01:20:46.455Z,68.20
2019-02-27T01:23:41.638Z,76.70
2019-02-27T01:26:35.077Z,82.97
2019-02-27T01:29:30.478Z,81.70
2019-02-27T01:32:25.721Z,69.87
2019-02-27T01:35:22.437Z,84.32
2019-02-27T01:38:17.570Z,67.78
2019-02-27T01:41:14.322Z,58.65
2019-02-27T01:44:11.176Z,63.20
2019-02-27T01:47:04.995Z,78.42
2019-02-27T01:49:59.930Z,76.80
2019-02-27T01:52:55.306Z,50.75
2019-02-27T01:55:50.388Z,54.38
2019-02-27T01:58:45.622Z,68.75
2019-02-27T02:01:40.566Z,58.28
2019-02-27T02:04:35.529Z,50.30
2019-02-27T02:07:30.905Z,52.08
2019-02-27T02:10:28.304Z,57.43
2019-02-27T02:13:29.747Z,77.45
2019-02-27T02:17:05.007Z,63.08
2019-02-27T02:20:42.294Z,61.33
2019-02-27T02:23:55.462Z,60.20
2019-02-27T02:27:23.358Z,56.55
2019-02-27T02:30:55.803Z,64.67
2019-02-27T02:34:12.716Z,58.83
2019-02-27T02:37:47.120Z,81.17
2019-02-27T02:41:09.410Z,62.65
2019-02-27T02:44:35.178Z,66.05
2019-02-27T02:47:59.368Z,74.25
2019-02-27T02:51:29.102Z,74.50
2019-02-27T02:55:11.969Z,93.07
2019-02-27T02:58:36.700Z,66.00
2019-02-27T03:01:57.817Z,60.12
2019-02-27T03:05:16.949Z,55.83
2019-02-27T03:08:39.328Z,65.85
2019-02-27T03:12:02.072Z,56.90
2019-02-27T03:15:21.332Z,58.70
2019-02-27T03:18:42.171Z,70.72
2019-02-27T03:22:12.121Z,64.15
2019-02-27T03:25:48.800Z,64.37
2019-02-27T03:29:16.899Z,57.00
2019-02-27T03:32:35.712Z,56.05
2019-02-27T03:36:09.362Z,56.65
2019-02-27T03:40:01.737Z,61.20
2019-02-27T03:43:34.863Z,52.20
2019-02-27T03:47:16.841Z,63.28
2019-02-27T03:50:37.057Z,56.05
2019-02-27T03:54:01.905Z,51.83
2019-02-27T03:57:16.058Z,50.48
2019-02-27T04:00:33.576Z,49.48
2019-02-27T04:04:11.236Z,48.00
2019-02-27T04:07:31.831Z,49.13
2019-02-27T04:10:30.897Z,41.18
2019-02-27T04:13:26.814Z,53.65
2019-02-27T04:16:16.847Z,60.78
2019-02-27T04:19:12.417Z,52.25
2019-02-27T04:22:07.904Z,66.12
2019-02-27T04:25:03.334Z,52.83
2019-02-27T04:27:58.404Z,49.60
2019-02-27T04:30:54.404Z,48.50
2019-02-27T04:33:49.271Z,48.20
2019-02-27T04:36:47.154Z,48.95
2019-02-27T04:39:41.552Z,48.10
2019-02-27T04:42:37.316Z,45.83
2019-02-27T04:45:32.937Z,49.48
2019-02-27T04:48:30.004Z,38.42
2019-02-27T04:51:25.192Z,54.10
2019-02-27T04:54:21.051Z,50.40
2019-02-27T04:57:16.569Z,57.10
2019-02-27T05:00:12.633Z,52.48
2019-02-27T05:03:11.991Z,44.10
2019-02-27T05:06:25.137Z,54.23
2019-02-27T05:09:26.994Z,51.90
2019-02-27T05:12:42.375Z,53.73
2019-02-27T05:16:05.796Z,47.93
2019-02-27T05:19:20.338Z,52.65
2019-02-27T05:22:26.356Z,99.62
2019-02-27T05:25:18.939Z,69.90
2019-02-27T05:28:21.564Z,81.28
2019-02-27T05:31:53.125Z,68.80
2019-02-27T05:35:15.007Z,53.75
2019-02-27T05:38:23.317Z,48.95
2019-02-27T05:41:45.245Z,61.35
2019-02-27T05:45:07.510Z,36.53
2019-02-27T05:48:12.142Z,67.00
2019-02-27T05:51:34.253Z,54.03
2019-02-27T05:54:42.538Z,55.95
2019-02-27T05:57:51.560Z,55.50
2019-02-27T06:01:22.639Z,66.02
2019-02-27T06:04:24.927Z,61.13
2019-02-27T06:07:30.693Z,45.80
2019-02-27T06:10:33.705Z,62.17
2019-02-27T06:13:37.599Z,66.62
2019-02-27T06:17:14.910Z,44.53
2019-02-27T06:20:07.870Z,54.75
2019-02-27T06:23:11.589Z,46.80
2019-02-27T06:26:27.255Z,45.15
2019-02-27T06:29:47.876Z,49.18
2019-02-27T06:32:47.789Z,49.35
2019-02-27T06:35:49.326Z,59.38
2019-02-27T06:38:44.880Z,52.53
2019-02-27T06:41:41.543Z,47.53
2019-02-27T06:44:41.816Z,46.33
2019-02-27T06:47:43.650Z,52.90
2019-02-27T06:50:40.264Z,52.10
2019-02-27T06:53:39.127Z,44.95
2019-02-27T06:56:35.178Z,48.05
2019-02-27T06:59:31.902Z,45.88
2019-02-27T07:02:28.705Z,43.80
2019-02-27T07:05:25.060Z,38.92
2019-02-27T07:08:20.664Z,39.45
2019-02-27T07:11:20.850Z,46.45
2019-02-27T07:14:18.785Z,46.45
2019-02-27T07:17:16.255Z,42.98
2019-02-27T07:20:14.793Z,42.48
2019-02-27T07:23:10.848Z,43.65
2019-02-27T07:26:09.278Z,44.20
2019-02-27T07:29:08.158Z,48.70
2019-02-27T07:32:12.210Z,54.83
2019-02-27T07:35:10.003Z,50.75
2019-02-27T07:38:06.427Z,50.45
2019-02-27T07:41:02.572Z,34.23
2019-02-27T07:43:59.553Z,60.35
2019-02-27T07:47:02.179Z,52.93
2019-02-27T07:49:58.883Z,51.98
2019-02-27T07:52:59.748Z,42.65
2019-02-27T07:56:02.569Z,62.10
2019-02-27T07:58:58.813Z,44.15
2019-02-27T08:01:54.058Z,38.78
2019-02-27T08:04:51.650Z,46.05
2019-02-27T08:07:48.669Z,52.88
2019-02-27T08:10:41.143Z,35.25
2019-02-27T08:13:38.424Z,38.55
2019-02-27T08:16:36.796Z,39.67
2019-02-27T08:19:31.000Z,57.53
2019-02-27T08:22:26.595Z,39.53
2019-02-27T08:25:29.708Z,41.73
2019-02-27T08:28:41.637Z,41.70
2019-02-27T08:31:38.419Z,46.28
2019-02-27T08:34:36.426Z,41.70
2019-02-27T08:37:35.038Z,48.60
2019-02-27T08:40:31.794Z,48.28
2019-02-27T08:43:27.700Z,51.10
2019-02-27T08:46:30.072Z,58.15
2019-02-27T08:49:32.972Z,48.55
2019-02-27T08:52:30.480Z,46.98
2019-02-27T08:55:39.012Z,34.30
2019-02-27T08:58:32.888Z,43.10
2019-02-27T09:01:28.771Z,45.70
2019-02-27T09:04:28.768Z,40.08
2019-02-27T09:07:25.314Z,40.43
2019-02-27T09:10:30.449Z,51.50
2019-02-27T09:13:46.098Z,73.05
2019-02-27T09:16:49.425Z,44.33
2019-02-27T09:20:09.203Z,42.93
2019-02-27T09:23:05.472Z,42.62
2019-02-27T09:26:02.707Z,34.43
2019-02-27T09:29:04.599Z,44.80
2019-02-27T09:32:00.675Z,47.58
2019-02-27T09:34:57.017Z,48.45
2019-02-27T09:37:52.039Z,45.15
2019-02-27T09:40:48.334Z,42.65
2019-02-27T09:43:44.591Z,44.50
2019-02-27T09:46:41.878Z,40.00
2019-02-27T09:49:50.474Z,43.23
2019-02-27T09:52:49.622Z,50.28
2019-02-27T09:55:53.442Z,39.42
2019-02-27T09:59:04.801Z,48.23
2019-02-27T10:02:32.091Z,36.28
2019-02-27T10:05:40.986Z,45.63
2019-02-27T10:09:08.898Z,43.85
2019-02-27T10:12:07.680Z,41.50
2019-02-27T10:15:03.686Z,51.40
2019-02-27T10:17:59.083Z,44.63
2019-02-27T10:20:59.315Z,55.98
2019-02-27T10:23:56.056Z,41.40
2019-02-27T10:26:53.525Z,52.93
2019-02-27T10:29:48.524Z,55.20
2019-02-27T10:32:44.092Z,34.55
2019-02-27T10:35:41.004Z,40.60
2019-02-27T10:38:40.306Z,50.10
2019-02-27T10:41:39.828Z,44.73
2019-02-27T10:44:38.214Z,53.83
2019-02-27T10:47:39.954Z,46.05
2019-02-27T10:50:37.704Z,38.02
2019-02-27T10:53:35.572Z,52.20
2019-02-27T10:56:32.182Z,49.13
2019-02-27T10:59:28.107Z,36.58
2019-02-27T11:02:30.846Z,41.35
2019-02-27T11:05:34.690Z,52.33
2019-02-27T11:08:30.204Z,40.98
2019-02-27T11:11:35.198Z,39.10
2019-02-27T11:14:32.770Z,53.10
2019-02-27T11:17:30.374Z,57.33
2019-02-27T11:20:37.815Z,38.33
2019-02-27T11:23:41.115Z,50.80
2019-02-27T11:26:38.205Z,46.95
2019-02-27T11:29:36.100Z,47.38
2019-02-27T11:33:00.345Z,48.30
2019-02-27T11:39:11.850Z,39.70
2019-02-27T11:42:22.112Z,53.20
2019-02-27T11:45:57.817Z,46.30
2019-02-27T11:49:42.894Z,46.02
2019-02-27T11:52:28.867Z,41.28
2019-02-27T11:55:35.504Z,47.23
2019-02-27T11:58:32.491Z,38.28
2019-02-27T12:01:28.473Z,52.50
2019-02-27T12:04:28.461Z,55.28
2019-02-27T12:07:26.857Z,52.75
2019-02-27T12:10:24.760Z,50.73
2019-02-27T12:13:20.760Z,56.75
2019-02-27T12:16:18.349Z,56.42
2019-02-27T12:19:16.249Z,56.77
2019-02-27T12:22:13.305Z,52.43
2019-02-27T12:25:10.761Z,59.93
2019-02-27T12:28:07.998Z,57.88
2019-02-27T12:31:03.259Z,60.03
2019-02-27T12:34:02.528Z,76.17
2019-02-27T12:36:56.845Z,57.58
2019-02-27T12:39:53.736Z,67.00
2019-02-27T12:42:50.708Z,88.82
2019-02-27T12:45:47.662Z,83.22
2019-02-27T12:48:46.155Z,71.28
2019-02-27T12:51:41.090Z,66.70
2019-02-27T12:54:37.152Z,93.90
2019-02-27T12:57:32.607Z,61.63
2019-02-27T13:00:34.616Z,59.15
2019-02-27T13:03:31.841Z,77.12
2019-02-27T13:06:34.397Z,67.62
2019-02-27T13:09:28.986Z,74.65
2019-02-27T13:12:26.959Z,69.90
2019-02-27T13:15:23.553Z,64.37
2019-02-27T13:18:20.275Z,63.35
2019-02-27T13:21:20.336Z,89.65
2019-02-27T13:24:25.210Z,66.12
2019-02-27T13:27:20.755Z,70.15
2019-02-27T13:30:22.486Z,80.55
2019-02-27T13:33:18.077Z,83.70
2019-02-27T13:36:13.918Z,90.32
2019-02-27T13:39:10.599Z,99.37
2019-02-27T13:42:06.334Z,63.25
2019-02-27T13:45:03.867Z,83.78
2019-02-27T13:48:04.861Z,64.25
2019-02-27T13:50:56.594Z,78.70
2019-02-27T13:53:51.803Z,89.40
2019-02-27T13:56:48.890Z,77.40
2019-02-27T13:59:44.922Z,91.10
2019-02-27T14:02:41.308Z,78.67
2019-02-27T14:05:36.855Z,89.47
2019-02-27T14:08:33.026Z,87.42
2019-02-27T14:11:28.757Z,93.92
2019-02-27T14:14:27.261Z,84.50
2019-02-27T14:17:22.459Z,93.82
2019-02-27T14:20:20.119Z,91.32
2019-02-27T14:23:15.689Z,111.90
2019-02-27T14:26:10.937Z,96.87
2019-02-27T14:29:07.269Z,87.55
2019-02-27T14:32:06.847Z,106.80
2019-02-27T14:35:02.412Z,93.80
2019-02-27T14:38:01.304Z,92.02
2019-02-27T14:40:56.612Z,96.82
2019-02-27T14:43:52.281Z,91.72
2019-02-27T14:46:47.974Z,84.72
2019-02-27T14:49:43.716Z,94.20
2019-02-27T14:52:39.386Z,114.03
2019-02-27T14:55:37.273Z,90.15
2019-02-27T14:58:31.175Z,97.97
2019-02-27T15:01:29.006Z,117.10
2019-02-27T15:04:26.222Z,126.27
2019-02-27T15:07:22.778Z,105.95
2019-02-27T15:10:19.233Z,123.13
2019-02-27T15:13:15.226Z,141.32
2019-02-27T15:16:15.347Z,108.80
2019-02-27T15:19:12.758Z,129.05
2019-02-27T15:22:08.505Z,121.77
2019-02-27T15:25:07.822Z,101.38
2019-02-27T15:28:01.355Z,87.05
2019-02-27T15:30:56.654Z,90.25
2019-02-27T15:33:53.862Z,119.47
2019-02-27T15:36:48.001Z,110.37
2019-02-27T15:39:43.489Z,117.80
2019-02-27T15:42:40.037Z,122.47
2019-02-27T15:45:35.393Z,137.77
2019-02-27T15:48:31.576Z,120.67
2019-02-27T15:51:28.396Z,125.33
2019-02-27T15:54:24.635Z,117.33
2019-02-27T15:57:19.422Z,115.05
2019-02-27T16:00:18.557Z,113.55
2019-02-27T16:03:14.208Z,127.20
2019-02-27T16:06:09.602Z,135.90
2019-02-27T16:09:05.106Z,128.95
2019-02-27T16:12:01.722Z,152.43
2019-02-27T16:14:58.160Z,166.35
2019-02-27T16:17:53.629Z,147.95
2019-02-27T16:20:49.880Z,139.07
2019-02-27T16:23:46.113Z,140.77
2019-02-27T16:26:42.000Z,137.05
2019-02-27T16:29:37.947Z,154.80
2019-02-27T16:32:34.339Z,138.47
2019-02-27T16:35:30.628Z,129.60
2019-02-27T16:38:28.416Z,148.80
2019-02-27T16:41:27.910Z,144.70
2019-02-27T16:44:22.074Z,160.57
2019-02-27T16:47:19.911Z,151.70
2019-02-27T16:50:15.213Z,151.27
2019-02-27T16:53:15.728Z,154.27
2019-02-27T16:56:08.249Z,177.30
2019-02-27T16:59:07.684Z,154.03
2019-02-27T17:02:03.644Z,175.93
2019-02-27T17:04:56.664Z,150.27
2019-02-27T17:07:52.414Z,172.57
2019-02-27T17:10:51.715Z,200.78
2019-02-27T17:13:46.927Z,171.35
2019-02-27T17:16:44.912Z,137.55
2019-02-27T17:19:40.316Z,134.75
2019-02-27T17:22:37.009Z,120.85
2019-02-27T17:25:33.041Z,115.17
2019-02-27T17:28:28.653Z,113.25
2019-02-27T17:31:24.128Z,99.20
2019-02-27T17:34:19.459Z,87.35
2019-02-27T17:37:15.421Z,91.82
2019-02-27T17:40:11.136Z,81.22
2019-02-27T17:43:06.805Z,72.62
2019-02-27T17:46:05.582Z,98.70
2019-02-27T17:49:01.382Z,99.30
2019-02-27T17:51:57.030Z,88.47
2019-02-27T17:54:52.840Z,85.90
2019-02-27T17:57:48.322Z,95.53
2019-02-27T18:00:50.022Z,93.90
2019-02-27T18:03:41.903Z,88.17
2019-02-27T18:06:37.981Z,104.10
2019-02-27T18:09:32.924Z,106.00
2019-02-27T18:12:28.543Z,120.02
2019-02-27T18:15:24.567Z,102.70
2019-02-27T18:18:20.234Z,93.15
2019-02-27T18:21:16.024Z,100.30
2019-02-27T18:24:11.413Z,68.22
2019-02-27T18:27:07.379Z,75.17
2019-02-27T18:30:03.284Z,78.40
2019-02-27T18:33:01.083Z,82.33
2019-02-27T18:35:55.380Z,65.20
2019-02-27T18:38:51.461Z,61.23
2019-02-27T18:41:47.168Z,71.87
2019-02-27T18:44:42.816Z,76.37
2019-02-27T18:47:39.080Z,61.60
2019-02-27T18:50:34.747Z,59.88
2019-02-27T18:53:32.173Z,74.17
2019-02-27T18:56:26.854Z,74.67
2019-02-27T18:59:22.444Z,77.53
2019-02-27T19:02:20.590Z,64.40
2019-02-27T19:05:14.191Z,59.03
2019-02-27T19:08:10.127Z,59.48
2019-02-27T19:11:05.837Z,55.00
2019-02-27T19:14:02.455Z,55.05
2019-02-27T19:16:56.656Z,57.50
2019-02-27T19:19:52.550Z,56.42
2019-02-27T19:22:48.605Z,51.40
2019-02-27T19:25:44.922Z,59.27
2019-02-27T19:28:40.855Z,54.75
2019-02-27T19:31:36.955Z,48.75
2019-02-27T19:34:32.822Z,54.00
2019-02-27T19:37:28.764Z,49.10
2019-02-27T19:40:29.908Z,38.40
2019-02-27T19:43:21.173Z,53.45
2019-02-27T19:46:17.289Z,48.00
2019-02-27T19:49:12.106Z,45.40
2019-02-27T19:52:07.820Z,53.58
2019-02-27T19:55:03.294Z,50.00
2019-02-27T19:57:58.783Z,51.33
2019-02-27T20:00:54.350Z,51.08
2019-02-27T20:03:49.494Z,39.88
2019-02-27T20:06:44.895Z,48.83
2019-02-27T20:09:40.334Z,50.92
2019-02-27T20:12:36.242Z,43.40
2019-02-27T20:15:31.629Z,47.13
2019-02-27T20:18:26.977Z,51.68
2019-02-27T20:21:23.500Z,47.20
2019-02-27T20:24:19.315Z,56.28
2019-02-27T20:27:14.611Z,42.40
2019-02-27T20:30:14.112Z,49.08
2019-02-27T20:33:08.911Z,44.25
2019-02-27T20:36:05.158Z,48.28
2019-02-27T20:39:03.252Z,57.85
2019-02-27T20:41:57.515Z,48.42
2019-02-27T20:44:52.764Z,50.80
2019-02-27T20:47:48.149Z,56.58
2019-02-27T20:50:45.666Z,57.35
2019-02-27T20:53:42.296Z,62.25
2019-02-27T20:56:37.446Z,68.55
2019-02-27T20:59:32.758Z,57.03
2019-02-27T21:02:28.297Z,57.70
2019-02-27T21:05:23.323Z,58.83
2019-02-27T21:08:24.109Z,60.92
2019-02-27T21:11:19.341Z,57.43
2019-02-27T21:14:20.499Z,53.92
2019-02-27T21:17:20.353Z,63.85
2019-02-27T21:20:13.209Z,59.88
2019-02-27T21:23:09.308Z,53.23
2019-02-27T21:26:04.971Z,61.63
2019-02-27T21:29:00.529Z,61.45
2019-02-27T21:31:58.267Z,57.23
2019-02-27T21:34:55.016Z,52.85
2019-02-27T21:37:48.136Z,56.10
2019-02-27T21:40:43.796Z,54.50
2019-02-27T21:43:39.981Z,65.52
2019-02-27T21:46:34.610Z,60.20
2019-02-27T21:49:35.506Z,62.03
2019-02-27T21:52:41.159Z,62.27
2019-02-27T21:55:37.055Z,62.88
2019-02-27T21:58:33.012Z,60.78
2019-02-27T22:01:28.874Z,61.20
2019-02-27T22:04:24.528Z,60.48
2019-02-27T22:07:20.115Z,62.23
2019-02-27T22:10:19.738Z,56.37
2019-02-27T22:13:13.556Z,56.33
2019-02-27T22:16:10.636Z,49.93
2019-02-27T22:19:05.978Z,51.90
2019-02-27T22:22:01.800Z,76.25
2019-02-27T22:24:57.348Z,59.83
2019-02-27T22:27:52.780Z,54.88
2019-02-27T22:30:48.092Z,53.83
2019-02-27T22:33:43.663Z,67.50
2019-02-27T22:36:38.803Z,61.18
2019-02-27T22:39:34.466Z,51.08
2019-02-27T22:42:29.981Z,49.42
2019-02-27T22:45:25.558Z,51.77
2019-02-27T22:48:21.948Z,59.18
2019-02-27T22:51:28.422Z,52.27
2019-02-27T22:54:23.866Z,51.42
2019-02-27T22:57:19.266Z,52.80
2019-02-27T23:00:30.707Z,40.15
2019-02-27T23:03:27.558Z,43.75
2019-02-27T23:06:23.116Z,43.95
2019-02-27T23:09:19.807Z,45.03
2019-02-27T23:12:15.444Z,46.65
2019-02-27T23:15:11.461Z,48.35
2019-02-27T23:18:07.392Z,42.73
2019-02-27T23:21:03.862Z,43.70
2019-02-27T23:23:59.550Z,43.25
2019-02-27T23:26:55.667Z,51.65
2019-02-27T23:29:51.412Z,49.70
2019-02-27T23:32:47.119Z,51.23
2019-02-27T23:35:42.158Z,49.27
2019-02-27T23:38:38.240Z,41.53
2019-02-27T23:41:34.242Z,47.50
2019-02-27T23:44:29.891Z,56.40
2019-02-27T23:47:25.309Z,50.10
2019-02-27T23:50:20.752Z,51.75
2019-02-27T23:53:15.941Z,47.75
2019-02-27T23:56:11.736Z,45.92
2019-02-27T23:59:07.088Z,52.15
